KFOZ

Bigfork Municipal Airport

Bigfork, Minnesota, USA
METAR KFOZ 190333Z AUTO 00000KT 7SM CLR M04/M06 A2964 RMK AO2
Observed Flight Rules
Jan-19 @ 03:33 UTC (17 minutes ago) Visual Flight Rules
Wind Visibility Clouds
Calm 7 miles
  • Clear skies
Temperatures Readings
Current -4°C / 25°F
Dewpoint -6°C / 21°F
Humidity 86%
Altimeter 29.64" Hg
Pressure 1004 hPa
Elevation 411
METAR KFOZ 190333Z AUTO 00000KT 7SM CLR M04/M06 A2964 RMK AO2
Observed Flight Rules
Jan-19 @ 03:33 UTC
(17 minutes ago)
VFR
Wind Visibility
Calm 7 miles
Clouds
  • Clear skies
Temperature Dewpoint
-4°C / 25°F -6°C / 21°F
Humidity Altimeter Pressure
86% 29.64" Hg 1004 hPa